createdAt,value
2022-09-29T00:00:14.541Z,16.50
2022-09-29T00:02:41.097Z,11.80
2022-09-29T00:05:08.155Z,10.57
2022-09-29T00:07:34.539Z,12.47
2022-09-29T00:10:01.060Z,20.07
2022-09-29T00:12:27.393Z,12.70
2022-09-29T00:14:53.804Z,12.43
2022-09-29T00:17:20.150Z,14.43
2022-09-29T00:19:46.750Z,17.43
2022-09-29T00:22:13.098Z,13.50
2022-09-29T00:24:39.489Z,14.13
2022-09-29T00:27:05.862Z,14.43
2022-09-29T00:29:32.332Z,12.67
2022-09-29T00:31:58.719Z,14.00
2022-09-29T00:34:25.131Z,14.80
2022-09-29T00:36:51.461Z,12.67
2022-09-29T00:39:17.831Z,14.57
2022-09-29T00:41:44.169Z,13.13
2022-09-29T00:44:13.572Z,15.53
2022-09-29T00:47:01.516Z,15.27
2022-09-29T00:49:43.367Z,12.90
2022-09-29T00:52:32.400Z,12.50
2022-09-29T00:55:05.176Z,14.80
2022-09-29T00:57:39.455Z,15.70
2022-09-29T01:00:09.917Z,13.80
2022-09-29T01:02:42.701Z,16.13
2022-09-29T01:05:16.189Z,13.37
2022-09-29T01:07:44.511Z,18.77
2022-09-29T01:10:13.172Z,16.10
2022-09-29T01:12:39.556Z,16.37
2022-09-29T01:15:06.446Z,17.87
2022-09-29T01:17:32.865Z,15.93
2022-09-29T01:20:15.787Z,16.30
2022-09-29T01:22:52.888Z,12.23
2022-09-29T01:25:49.932Z,14.60
2022-09-29T01:28:28.056Z,17.40
2022-09-29T01:31:50.320Z,22.30
2022-09-29T01:34:32.438Z,15.30
2022-09-29T01:37:04.676Z,14.37
2022-09-29T01:39:59.527Z,14.17
2022-09-29T01:42:32.412Z,12.50
2022-09-29T01:45:15.750Z,13.80
2022-09-29T01:47:56.360Z,12.17
2022-09-29T01:50:35.733Z,14.03
2022-09-29T01:53:09.125Z,14.93
2022-09-29T01:55:41.265Z,16.13
2022-09-29T01:58:13.385Z,13.53
2022-09-29T02:00:45.676Z,17.20
2022-09-29T02:03:26.080Z,15.30
2022-09-29T02:05:56.654Z,16.80
2022-09-29T02:08:26.215Z,19.67
2022-09-29T02:11:03.400Z,14.73
2022-09-29T02:13:43.784Z,14.03
2022-09-29T02:16:14.633Z,13.60
2022-09-29T02:18:49.317Z,17.47
2022-09-29T02:21:15.704Z,15.83
2022-09-29T02:23:42.204Z,12.90
2022-09-29T02:26:10.626Z,16.50
2022-09-29T02:28:37.493Z,17.60
2022-09-29T02:31:04.119Z,15.63
2022-09-29T02:33:30.542Z,14.67
2022-09-29T02:36:12.879Z,14.00
2022-09-29T02:39:01.455Z,19.90
2022-09-29T02:41:55.292Z,14.93
2022-09-29T02:44:36.688Z,12.30
2022-09-29T02:47:12.224Z,19.70
2022-09-29T02:49:57.461Z,13.83
2022-09-29T02:52:38.158Z,15.50
2022-09-29T02:55:20.481Z,20.63
2022-09-29T02:57:56.498Z,15.70
2022-09-29T03:00:23.858Z,16.37
2022-09-29T03:02:50.187Z,15.00
2022-09-29T03:05:20.581Z,16.20
2022-09-29T03:07:47.274Z,16.90
2022-09-29T03:10:16.574Z,16.00
2022-09-29T03:12:42.937Z,15.20
2022-09-29T03:15:12.573Z,15.43
2022-09-29T03:17:40.127Z,18.10
2022-09-29T03:20:07.512Z,13.60
2022-09-29T03:22:34.300Z,13.90
2022-09-29T03:25:00.679Z,14.03
2022-09-29T03:27:27.015Z,13.90
2022-09-29T03:29:53.387Z,12.07
2022-09-29T03:32:19.721Z,15.83
2022-09-29T03:34:46.248Z,14.07
2022-09-29T03:37:12.782Z,17.63
2022-09-29T03:39:39.384Z,12.97
2022-09-29T03:42:05.778Z,16.03
2022-09-29T03:44:32.548Z,13.57
2022-09-29T03:46:58.889Z,16.43
2022-09-29T03:49:25.282Z,18.40
2022-09-29T03:51:52.600Z,15.57
2022-09-29T03:54:19.125Z,13.47
2022-09-29T03:56:45.453Z,16.30
2022-09-29T03:59:12.337Z,17.97
2022-09-29T04:01:38.858Z,16.20
2022-09-29T04:04:06.919Z,15.53
2022-09-29T04:06:33.922Z,22.43
2022-09-29T04:09:00.399Z,25.10
2022-09-29T04:11:26.743Z,23.13
2022-09-29T04:13:53.447Z,16.67
2022-09-29T04:16:19.851Z,19.33
2022-09-29T04:18:46.563Z,16.93
2022-09-29T04:21:12.911Z,20.37
2022-09-29T04:23:39.265Z,20.03
2022-09-29T04:26:05.856Z,18.60
2022-09-29T04:28:33.105Z,18.33
2022-09-29T04:30:59.480Z,16.73
2022-09-29T04:33:25.810Z,15.20
2022-09-29T04:35:52.308Z,16.33
2022-09-29T04:38:18.653Z,22.00
2022-09-29T04:40:45.264Z,16.97
2022-09-29T04:43:11.697Z,26.30
2022-09-29T04:45:38.145Z,17.70
2022-09-29T04:48:04.793Z,18.30
2022-09-29T04:50:32.087Z,17.97
2022-09-29T04:52:59.746Z,18.53
2022-09-29T04:55:26.640Z,15.93
2022-09-29T04:57:53.362Z,17.73
2022-09-29T05:00:20.068Z,20.27
2022-09-29T05:02:49.682Z,19.60
2022-09-29T05:05:17.719Z,16.33
2022-09-29T05:07:44.558Z,20.73
2022-09-29T05:10:10.965Z,16.37
2022-09-29T05:12:38.021Z,17.13
2022-09-29T05:15:06.187Z,18.20
2022-09-29T05:17:32.621Z,18.53
2022-09-29T05:19:59.140Z,25.43
2022-09-29T05:22:26.015Z,21.90
2022-09-29T05:24:53.140Z,18.63
2022-09-29T05:27:19.648Z,19.70
2022-09-29T05:29:46.281Z,18.07
2022-09-29T05:32:12.640Z,19.83
2022-09-29T05:34:39.482Z,20.80
2022-09-29T05:37:05.832Z,20.97
2022-09-29T05:39:34.674Z,21.37
2022-09-29T05:42:02.414Z,25.80
2022-09-29T05:44:29.346Z,28.53
2022-09-29T05:46:55.682Z,19.97
2022-09-29T05:49:23.047Z,21.17
2022-09-29T05:51:49.495Z,20.30
2022-09-29T05:54:15.890Z,18.87
2022-09-29T05:56:45.285Z,21.60
2022-09-29T05:59:12.350Z,19.93
2022-09-29T06:01:39.125Z,18.83
2022-09-29T06:04:05.582Z,25.07
2022-09-29T06:06:32.055Z,18.70
2022-09-29T06:08:59.457Z,25.03
2022-09-29T06:11:28.547Z,17.10
2022-09-29T06:13:55.979Z,19.40
2022-09-29T06:16:25.822Z,23.03
2022-09-29T06:18:53.041Z,19.70
2022-09-29T06:21:24.399Z,22.60
2022-09-29T06:23:52.376Z,20.03
2022-09-29T06:26:23.613Z,18.90
2022-09-29T06:28:50.957Z,17.13
2022-09-29T06:31:21.014Z,20.03
2022-09-29T06:33:48.066Z,19.23
2022-09-29T06:36:43.251Z,19.47
2022-09-29T06:39:12.355Z,17.47
2022-09-29T06:41:38.805Z,19.70
2022-09-29T06:44:05.181Z,19.07
2022-09-29T06:46:31.564Z,20.10
2022-09-29T06:48:58.120Z,19.43
2022-09-29T06:51:35.316Z,20.10
2022-09-29T06:54:11.619Z,22.90
2022-09-29T06:56:38.392Z,20.23
2022-09-29T06:59:04.877Z,17.93
2022-09-29T07:01:31.348Z,17.40
2022-09-29T07:04:00.714Z,21.30
2022-09-29T07:06:29.454Z,21.70
2022-09-29T07:08:57.212Z,18.17
2022-09-29T07:11:23.792Z,21.63
2022-09-29T07:13:54.452Z,22.20
2022-09-29T07:16:27.956Z,20.27
2022-09-29T07:18:54.464Z,22.27
2022-09-29T07:21:22.017Z,21.80
2022-09-29T07:23:48.928Z,21.93
2022-09-29T07:26:16.993Z,21.80
2022-09-29T07:28:44.421Z,21.77
2022-09-29T07:31:15.582Z,24.57
2022-09-29T07:33:47.206Z,20.60
2022-09-29T07:36:15.159Z,23.27
2022-09-29T07:38:41.999Z,23.43
2022-09-29T07:41:11.287Z,23.97
2022-09-29T07:43:38.576Z,22.70
2022-09-29T07:46:05.690Z,26.23
2022-09-29T07:48:33.706Z,22.77
2022-09-29T07:51:08.887Z,21.50
2022-09-29T07:53:36.969Z,22.23
2022-09-29T07:56:05.966Z,20.70
2022-09-29T07:58:33.373Z,19.80
2022-09-29T08:01:01.435Z,17.37
2022-09-29T08:03:29.987Z,21.20
2022-09-29T08:05:57.894Z,20.10
2022-09-29T08:08:24.390Z,19.07
2022-09-29T08:10:53.854Z,23.73
2022-09-29T08:13:20.628Z,20.53
2022-09-29T08:15:47.143Z,20.97
2022-09-29T08:18:13.577Z,18.87
2022-09-29T08:20:39.953Z,18.63
2022-09-29T08:23:06.878Z,20.10
2022-09-29T08:25:33.836Z,19.83
2022-09-29T08:28:00.414Z,18.70
2022-09-29T08:30:26.791Z,18.27
2022-09-29T08:32:53.941Z,16.80
2022-09-29T08:35:21.028Z,20.03
2022-09-29T08:37:47.818Z,19.77
2022-09-29T08:40:14.562Z,18.73
2022-09-29T08:42:50.544Z,17.37
2022-09-29T08:45:29.016Z,16.97
2022-09-29T08:48:10.926Z,17.73
2022-09-29T08:50:56.305Z,17.73
2022-09-29T08:53:29.109Z,18.80
2022-09-29T08:56:02.214Z,18.50
2022-09-29T08:58:28.808Z,18.77
2022-09-29T09:01:19.460Z,16.53
2022-09-29T09:04:12.319Z,17.83
2022-09-29T09:07:03.011Z,19.13
2022-09-29T09:09:47.072Z,17.93
2022-09-29T09:12:40.519Z,23.17
2022-09-29T09:15:23.655Z,17.80
2022-09-29T09:18:04.223Z,16.73
2022-09-29T09:20:36.894Z,17.67
2022-09-29T09:23:25.544Z,21.47
2022-09-29T09:25:56.992Z,17.70
2022-09-29T09:28:53.227Z,17.77
2022-09-29T09:31:33.656Z,18.80
2022-09-29T09:34:15.889Z,17.70
2022-09-29T09:36:50.587Z,19.93
2022-09-29T09:39:34.829Z,18.77
2022-09-29T09:42:06.879Z,18.70
2022-09-29T09:44:37.194Z,16.50
2022-09-29T09:47:21.073Z,16.70
2022-09-29T09:49:52.293Z,16.80
2022-09-29T09:52:29.353Z,15.70
2022-09-29T09:55:04.674Z,15.90
2022-09-29T09:57:49.308Z,16.67
2022-09-29T10:00:21.956Z,17.70
2022-09-29T10:02:50.843Z,16.93
2022-09-29T10:05:20.808Z,16.67
2022-09-29T10:07:51.073Z,17.47
2022-09-29T10:10:26.457Z,15.03
2022-09-29T10:13:01.873Z,18.10
2022-09-29T10:15:33.635Z,17.33
2022-09-29T10:18:38.543Z,16.70
2022-09-29T10:21:18.620Z,16.23
2022-09-29T10:24:01.886Z,16.60
2022-09-29T10:26:44.585Z,17.83
2022-09-29T10:29:23.620Z,16.00
2022-09-29T10:32:36.545Z,15.40
2022-09-29T10:35:25.140Z,16.87
2022-09-29T10:38:01.737Z,12.60
2022-09-29T10:40:28.919Z,13.40
2022-09-29T10:42:56.791Z,14.80
2022-09-29T10:45:24.718Z,14.73
2022-09-29T10:47:57.016Z,12.03
2022-09-29T10:50:35.091Z,14.97
2022-09-29T10:53:15.364Z,14.70
2022-09-29T10:55:51.911Z,12.13
2022-09-29T10:58:44.747Z,11.47
2022-09-29T11:01:18.044Z,14.90
2022-09-29T11:04:06.970Z,12.57
2022-09-29T11:06:38.439Z,10.93
2022-09-29T11:09:27.072Z,11.83
2022-09-29T11:12:00.731Z,13.53
2022-09-29T11:14:38.143Z,15.70
2022-09-29T11:17:27.678Z,14.80
2022-09-29T11:20:06.978Z,12.43
2022-09-29T11:23:07.516Z,13.73
2022-09-29T11:25:57.771Z,14.30
2022-09-29T11:28:45.972Z,12.23
2022-09-29T11:31:32.596Z,14.10
2022-09-29T11:34:32.961Z,12.00
2022-09-29T11:37:36.108Z,14.13
2022-09-29T11:40:39.420Z,14.90
2022-09-29T11:43:20.962Z,8.17
2022-09-29T11:46:07.332Z,9.63
2022-09-29T11:48:43.235Z,6.87
2022-09-29T11:51:52.369Z,11.10
2022-09-29T11:54:37.561Z,11.10
2022-09-29T11:57:29.432Z,7.53
2022-09-29T12:00:15.921Z,7.13
2022-09-29T12:03:23.917Z,7.03
2022-09-29T12:05:56.672Z,7.20
2022-09-29T12:08:38.316Z,7.20
2022-09-29T12:11:40.535Z,6.90
2022-09-29T12:14:16.016Z,6.73
2022-09-29T12:16:53.034Z,6.37
2022-09-29T12:19:28.105Z,8.60
2022-09-29T12:21:57.242Z,9.10
2022-09-29T12:24:35.470Z,9.10
2022-09-29T12:27:12.296Z,9.10
2022-09-29T12:29:48.140Z,9.13
2022-09-29T12:32:28.745Z,7.57
2022-09-29T12:35:06.630Z,8.63
2022-09-29T12:37:40.679Z,9.13
2022-09-29T12:40:37.865Z,8.83
2022-09-29T12:43:30.411Z,11.83
2022-09-29T12:46:05.069Z,9.30
2022-09-29T12:48:37.724Z,10.53
2022-09-29T12:51:27.968Z,10.80
2022-09-29T12:54:08.056Z,10.33
2022-09-29T12:56:45.456Z,10.43
2022-09-29T12:59:29.436Z,11.40
2022-09-29T13:01:57.612Z,9.53
2022-09-29T13:04:30.161Z,11.33
2022-09-29T13:07:11.193Z,11.00
2022-09-29T13:09:47.370Z,10.97
2022-09-29T13:12:19.785Z,11.07
2022-09-29T13:15:18.372Z,11.87
2022-09-29T13:18:17.333Z,12.60
2022-09-29T13:21:22.648Z,11.03
2022-09-29T13:24:13.864Z,11.60
2022-09-29T13:26:59.157Z,11.40
2022-09-29T13:29:28.489Z,12.90
2022-09-29T13:31:57.415Z,12.50
2022-09-29T13:34:31.978Z,12.20
2022-09-29T13:37:07.483Z,13.97
2022-09-29T13:39:35.141Z,13.30
2022-09-29T13:42:30.649Z,12.30
2022-09-29T13:45:27.996Z,11.43
2022-09-29T13:48:01.871Z,13.23
2022-09-29T13:50:48.911Z,15.77
2022-09-29T13:53:33.388Z,13.67
2022-09-29T13:56:02.963Z,13.33
2022-09-29T13:58:50.957Z,15.10
2022-09-29T14:01:32.995Z,13.57
2022-09-29T14:04:38.476Z,13.03
2022-09-29T14:07:06.294Z,13.57
2022-09-29T14:09:44.894Z,14.27
2022-09-29T14:12:26.084Z,14.73
2022-09-29T14:14:57.114Z,13.43
2022-09-29T14:17:37.249Z,15.03
2022-09-29T14:20:16.858Z,15.23
2022-09-29T14:22:43.205Z,17.80
2022-09-29T14:25:13.850Z,15.23
2022-09-29T14:28:01.229Z,15.83
2022-09-29T14:30:35.231Z,18.20
2022-09-29T14:33:20.000Z,15.93
2022-09-29T14:36:03.827Z,16.00
2022-09-29T14:38:44.706Z,15.60
2022-09-29T14:41:11.022Z,14.17
2022-09-29T14:43:42.226Z,17.70
2022-09-29T14:47:04.760Z,13.47
2022-09-29T14:50:25.116Z,13.40
2022-09-29T14:53:09.404Z,15.07
2022-09-29T14:55:38.793Z,14.70
2022-09-29T14:58:23.935Z,14.93
2022-09-29T15:01:09.620Z,15.63
2022-09-29T15:03:44.951Z,15.50
2022-09-29T15:06:21.435Z,14.40
2022-09-29T15:09:01.234Z,11.93
2022-09-29T15:11:38.118Z,12.30
2022-09-29T15:14:21.748Z,12.10
2022-09-29T15:17:08.413Z,13.63
2022-09-29T15:19:53.151Z,11.73
2022-09-29T15:22:38.591Z,11.20
2022-09-29T15:25:29.401Z,12.23
2022-09-29T15:28:18.154Z,11.17
2022-09-29T15:30:48.964Z,10.37
2022-09-29T15:33:24.676Z,10.37
2022-09-29T15:35:58.839Z,11.53
2022-09-29T15:38:25.156Z,11.00
2022-09-29T15:41:03.585Z,10.53
2022-09-29T15:43:41.065Z,10.73
2022-09-29T15:46:18.252Z,10.07
2022-09-29T15:49:10.208Z,10.57
2022-09-29T15:51:37.357Z,12.67
2022-09-29T15:54:05.391Z,10.57
2022-09-29T15:56:32.509Z,10.77
2022-09-29T15:58:59.762Z,11.20
2022-09-29T16:01:26.425Z,10.80
2022-09-29T16:03:57.727Z,12.03
2022-09-29T16:06:39.497Z,13.10
2022-09-29T16:09:17.305Z,12.20
2022-09-29T16:11:43.816Z,12.40
2022-09-29T16:14:27.052Z,12.80
2022-09-29T16:16:57.576Z,11.10
2022-09-29T16:19:30.567Z,11.23
2022-09-29T16:22:03.001Z,11.23
2022-09-29T16:24:32.278Z,9.07
2022-09-29T16:27:00.045Z,8.10
2022-09-29T16:29:31.535Z,9.17
2022-09-29T16:32:32.805Z,9.87
2022-09-29T16:35:39.968Z,9.17
2022-09-29T16:38:29.489Z,10.27
2022-09-29T16:40:56.853Z,11.27
2022-09-29T16:43:27.728Z,10.53
2022-09-29T16:45:56.956Z,12.23
2022-09-29T16:48:25.709Z,11.23
2022-09-29T16:51:37.818Z,11.40
2022-09-29T16:54:01.061Z,11.23
2022-09-29T16:56:35.426Z,11.20
2022-09-29T16:59:22.253Z,12.80
2022-09-29T17:01:48.882Z,12.57
2022-09-29T17:04:15.549Z,16.47
2022-09-29T17:06:47.338Z,16.90
2022-09-29T17:09:23.475Z,13.53
2022-09-29T17:11:50.049Z,12.33
2022-09-29T17:14:18.363Z,11.53
2022-09-29T17:16:45.770Z,11.70
2022-09-29T17:19:12.457Z,14.37
2022-09-29T17:21:38.958Z,13.00
2022-09-29T17:24:05.473Z,14.80
2022-09-29T17:27:00.179Z,13.67
2022-09-29T17:29:26.623Z,13.10
2022-09-29T17:31:53.218Z,13.07
2022-09-29T17:34:22.110Z,12.40
2022-09-29T17:36:49.301Z,12.93
2022-09-29T17:39:16.249Z,13.30
2022-09-29T17:41:45.861Z,15.30
2022-09-29T17:44:13.107Z,12.63
2022-09-29T17:46:39.619Z,16.20
2022-09-29T17:49:11.855Z,15.60
2022-09-29T17:51:38.458Z,14.60
2022-09-29T17:54:05.146Z,13.77
2022-09-29T17:56:37.352Z,14.77
2022-09-29T17:59:05.763Z,15.03
2022-09-29T18:01:34.379Z,14.40
2022-09-29T18:04:02.048Z,13.20
2022-09-29T18:06:28.855Z,16.73
2022-09-29T18:08:57.108Z,15.30
2022-09-29T18:11:25.869Z,17.00
2022-09-29T18:13:52.770Z,14.03
2022-09-29T18:16:22.466Z,14.50
2022-09-29T18:18:49.573Z,16.73
2022-09-29T18:21:19.524Z,13.97
2022-09-29T18:23:46.851Z,26.57
2022-09-29T18:26:14.685Z,18.27
2022-09-29T18:28:41.163Z,21.97
2022-09-29T18:31:20.026Z,57.23
2022-09-29T18:33:46.529Z,22.40
2022-09-29T18:36:12.893Z,24.43
2022-09-29T18:38:39.379Z,20.77
2022-09-29T18:41:10.037Z,21.93
2022-09-29T18:43:37.372Z,16.27
2022-09-29T18:46:03.838Z,16.00
2022-09-29T18:48:30.357Z,15.20
2022-09-29T18:50:56.767Z,13.93
2022-09-29T18:53:23.839Z,13.70
2022-09-29T18:55:55.889Z,13.27
2022-09-29T18:58:22.704Z,16.87
2022-09-29T19:00:55.416Z,16.80
2022-09-29T19:03:27.120Z,14.90
2022-09-29T19:05:54.691Z,14.67
2022-09-29T19:08:21.571Z,14.80
2022-09-29T19:10:54.081Z,16.10
2022-09-29T19:13:21.310Z,14.47
2022-09-29T19:15:48.334Z,18.03
2022-09-29T19:18:22.610Z,13.13
2022-09-29T19:20:55.127Z,12.30
2022-09-29T19:23:23.251Z,11.70
2022-09-29T19:25:51.381Z,12.50
2022-09-29T19:28:19.948Z,16.57
2022-09-29T19:30:47.135Z,12.77
2022-09-29T19:33:20.398Z,12.23
2022-09-29T19:35:54.263Z,25.73
2022-09-29T19:38:21.383Z,9.60
2022-09-29T19:40:48.098Z,8.73
2022-09-29T19:43:15.317Z,9.67
2022-09-29T19:45:43.188Z,10.53
2022-09-29T19:48:14.451Z,8.20
2022-09-29T19:50:59.444Z,11.53
2022-09-29T19:53:25.901Z,8.40
2022-09-29T19:55:52.951Z,8.77
2022-09-29T19:58:20.065Z,8.40
2022-09-29T20:00:46.446Z,8.30
2022-09-29T20:03:13.069Z,12.27
2022-09-29T20:05:39.538Z,14.73
2022-09-29T20:08:06.308Z,11.50
2022-09-29T20:10:32.917Z,9.10
2022-09-29T20:12:59.403Z,7.27
2022-09-29T20:15:26.219Z,7.17
2022-09-29T20:17:52.999Z,7.63
2022-09-29T20:20:22.662Z,6.60
2022-09-29T20:22:49.720Z,6.43
2022-09-29T20:25:16.452Z,5.70
2022-09-29T20:27:43.427Z,4.70
2022-09-29T20:30:10.083Z,5.13
2022-09-29T20:32:36.492Z,4.50
2022-09-29T20:35:02.860Z,4.40
2022-09-29T20:37:29.240Z,4.13
2022-09-29T20:39:55.957Z,4.20
2022-09-29T20:42:22.780Z,3.73
2022-09-29T20:44:54.810Z,3.70
2022-09-29T20:47:24.904Z,3.90
2022-09-29T20:49:51.621Z,3.83
2022-09-29T20:52:18.065Z,4.43
2022-09-29T20:54:44.672Z,4.37
2022-09-29T20:57:11.194Z,4.53
2022-09-29T20:59:37.587Z,5.33
2022-09-29T21:02:04.315Z,4.07
2022-09-29T21:04:30.741Z,4.53
2022-09-29T21:06:57.259Z,5.23
2022-09-29T21:09:24.207Z,3.73
2022-09-29T21:11:53.041Z,3.80
2022-09-29T21:14:24.049Z,4.27
2022-09-29T21:16:51.580Z,4.30
2022-09-29T21:19:19.448Z,4.50
2022-09-29T21:21:45.969Z,3.40
2022-09-29T21:24:14.465Z,4.30
2022-09-29T21:26:41.351Z,4.30
2022-09-29T21:29:13.521Z,4.20
2022-09-29T21:31:40.478Z,4.70
2022-09-29T21:34:07.688Z,4.13
2022-09-29T21:36:36.599Z,4.63
2022-09-29T21:39:08.709Z,4.07
2022-09-29T21:41:41.367Z,4.67
2022-09-29T21:44:12.892Z,7.80
2022-09-29T21:46:39.901Z,5.47
2022-09-29T21:49:08.564Z,4.17
2022-09-29T21:51:41.522Z,4.30
2022-09-29T21:54:12.213Z,4.87
2022-09-29T21:56:40.515Z,4.60
2022-09-29T21:59:08.621Z,4.80
2022-09-29T22:01:35.143Z,5.13
2022-09-29T22:04:02.409Z,11.30
2022-09-29T22:06:31.362Z,5.37
2022-09-29T22:08:58.897Z,5.33
2022-09-29T22:11:31.772Z,5.70
2022-09-29T22:13:59.503Z,6.63
2022-09-29T22:16:29.127Z,6.50
2022-09-29T22:19:21.573Z,4.90
2022-09-29T22:21:43.203Z,4.80
2022-09-29T22:24:11.082Z,4.50
2022-09-29T22:26:38.895Z,4.70
2022-09-29T22:29:05.240Z,5.40
2022-09-29T22:31:32.210Z,4.10
2022-09-29T22:34:01.339Z,6.47
2022-09-29T22:36:31.205Z,5.10
2022-09-29T22:38:57.689Z,4.37
2022-09-29T22:41:24.271Z,4.00
2022-09-29T22:43:55.494Z,4.97
2022-09-29T22:46:24.206Z,4.90
2022-09-29T22:48:50.725Z,4.40
2022-09-29T22:51:17.246Z,4.83
2022-09-29T22:53:43.708Z,4.77
2022-09-29T22:56:17.347Z,4.80
2022-09-29T22:58:43.684Z,5.10
2022-09-29T23:01:13.669Z,4.50
2022-09-29T23:03:42.067Z,5.60
2022-09-29T23:06:09.663Z,5.30
2022-09-29T23:08:36.943Z,5.83
2022-09-29T23:11:06.493Z,4.60
2022-09-29T23:13:34.506Z,5.73
2022-09-29T23:16:10.946Z,6.43
2022-09-29T23:18:43.664Z,4.90
2022-09-29T23:21:11.264Z,5.63
2022-09-29T23:23:38.032Z,5.40
2022-09-29T23:26:04.850Z,6.10
2022-09-29T23:28:31.179Z,6.07
2022-09-29T23:31:03.714Z,6.43
2022-09-29T23:33:30.193Z,5.40
2022-09-29T23:36:11.897Z,6.47
2022-09-29T23:39:02.094Z,5.77
2022-09-29T23:41:30.135Z,5.87
2022-09-29T23:43:59.037Z,5.73
2022-09-29T23:46:31.561Z,5.30
2022-09-29T23:48:59.114Z,5.20
2022-09-29T23:51:26.557Z,6.23
2022-09-29T23:53:52.942Z,6.37
2022-09-29T23:56:19.405Z,6.43
2022-09-29T23:58:45.757Z,6.30
